(Register or Login)
  0 Votes (0.00 Average) and 492 Views  

EMBRAER KC-390 (EMBRAER) - PORTÕES ABERTOS FAB 2019 – DCTA /São José Dos Campos-SP, 2019 Oct, 19 e 20br /br /SBSJ 121500Z 31004KT 9999 BKN025 27/19 Q1012
/images/icons/csMagGlass.png medium / large / full

EMBRAER KC-390 (EMBRAER)

Submitted

PORTÕES ABERTOS FAB 2019 – DCTA /São José Dos Campos-SP, 2019 Oct, 19 e 20

SBSJ 121500Z 31004KT 9999 BKN025 27/19 Q1012

Comments

Please log in or register to post a comment.

ACTIVITY LOG
Want a full history search for EMBRAER dating back to 1998? Buy now. Get it within one hour.
Date Aircraft Origin Destination Departure Arrival Duration
05-Oct-2021 UnknownMelbourne Orlando Intl ()Melbourne Orlando Intl () 18:37 EDT 18:40 EDT 0:03
Basic users (becoming a basic user is free and easy!) view 3 months history. Join
 

Login

Don't have an account? Register now (free) for customized features, flight alerts, and more!
This website uses cookies. By using and further navigating this website, you accept this.
Dismiss
Did you know that FlightAware flight tracking is supported by advertising?
You can help us keep FlightAware free by allowing ads from FlightAware.com. We work hard to keep our advertising relevant and unobtrusive to create a great experience. It's quick and easy to whitelist ads on FlightAware or please consider our premium accounts.
Dismiss